Etusivu
METAR-TAF:

METAR-TAF

Lentoasemat :

Avignon, Ranska

Leveyspiiri: 43-54-26N, Pituuspiiri: 004-54-07E, korkeus merenpinnasta: 38 m

Tämänhetkinen sää

Tämä raportti tehtiin 20 minuuttia sitten, kello 20.00 UTC
Tuuli 16 kn pohjoisen/luoteesta
Lämpötila 23°C
Kosteus 41%
Ilmanpaine 1016 hPa
Näkyvyys 10 km tai enemmän
ei pilviä alle 1500 m:ssä eikä cumulonimbus-pilviä

METAR: LFMV 032000Z AUTO 33016KT CAVOK 23/09 Q1016 BECMG 34025G35KT

Aika: 22:20 (20:20 UTC)

Sääennuste

Tämä raportti tehtiin 6 tuntia ja 20 minuuttia sitten, kello 14.00 UTC
Ennuste voimassa 03. päivästä klo 15 UTC - 04. päivään klo 15 UTC
Tuuli 25 kn pohjoisen/luoteesta puuskistuen 35 kn:hen
Näkyvyys 10 km tai enemmän
ei pilviä alle 1500 m:ssä eikä cumulonimbus-pilviä
Tulossa
04. päivästä klo 08 UTC - 04. päivään klo 10 UTC
Tuuli 15 kn pohjoisen/luoteesta puuskistuen 25 kn:hen

TAF: LFMV 031400Z 0315/0415 34025G35KT CAVOK BECMG 0408/0410 34015G25KT

Säähavainnot ja -ennusteet yli 4000 lentoasemalta (METAR- ja TAF-raportit).

Käytössä olevat sääasemat on merkitty karttaan keltaisilla ja punaisilla pisteillä.

Aseta hiiri pisteen päälle nähdäksesi sääaseman nimen.

Klikkaa sitten nähdäksesi säähavainnot ja -ennusteet.

Kartan vaihtaminen: klikkaa mustalla rastilla varustettuja vihreitä pisteitä, niin voit zoomata sisään; viivalla varustettua vihreää pistettä, niin voit zoomata ulos tai vihreitä nuolia, niin pääset viereisille kartoille.


METAR-TAF: